sensor_id;sensor_type;location;lat;lon;timestamp;temperature;humidity
44182;DHT22;30436;48.888;9.202;2022-10-30T00:00:30;17.80;99.90
44182;DHT22;30436;48.888;9.202;2022-10-30T00:02:55;17.90;99.90
44182;DHT22;30436;48.888;9.202;2022-10-30T00:05:21;17.80;99.90
44182;DHT22;30436;48.888;9.202;2022-10-30T00:07:47;17.70;99.90
44182;DHT22;30436;48.888;9.202;2022-10-30T00:10:13;17.80;99.90
44182;DHT22;30436;48.888;9.202;2022-10-30T00:12:39;17.80;99.90
44182;DHT22;30436;48.888;9.202;2022-10-30T00:15:06;17.80;99.90
44182;DHT22;30436;48.888;9.202;2022-10-30T00:17:32;17.80;99.90
44182;DHT22;30436;48.888;9.202;2022-10-30T00:19:58;18.00;99.90
44182;DHT22;30436;48.888;9.202;2022-10-30T00:22:24;17.90;99.90
44182;DHT22;30436;48.888;9.202;2022-10-30T00:24:49;17.80;99.90
44182;DHT22;30436;48.888;9.202;2022-10-30T00:27:15;17.80;99.90
44182;DHT22;30436;48.888;9.202;2022-10-30T00:29:41;17.80;99.90
44182;DHT22;30436;48.888;9.202;2022-10-30T00:32:07;17.70;99.90
44182;DHT22;30436;48.888;9.202;2022-10-30T00:34:32;17.70;99.90
44182;DHT22;30436;48.888;9.202;2022-10-30T00:36:58;18.00;99.90
44182;DHT22;30436;48.888;9.202;2022-10-30T00:39:24;17.80;99.90
44182;DHT22;30436;48.888;9.202;2022-10-30T00:41:50;17.80;99.90
44182;DHT22;30436;48.888;9.202;2022-10-30T00:47:02;17.90;99.90
44182;DHT22;30436;48.888;9.202;2022-10-30T00:49:37;18.00;99.90
44182;DHT22;30436;48.888;9.202;2022-10-30T00:52:06;18.00;99.90
44182;DHT22;30436;48.888;9.202;2022-10-30T00:54:33;17.90;99.90
44182;DHT22;30436;48.888;9.202;2022-10-30T00:57:01;18.00;99.90
44182;DHT22;30436;48.888;9.202;2022-10-30T00:59:29;18.10;99.90
44182;DHT22;30436;48.888;9.202;2022-10-30T01:01:57;18.00;99.90
44182;DHT22;30436;48.888;9.202;2022-10-30T01:04:23;18.00;99.90
44182;DHT22;30436;48.888;9.202;2022-10-30T01:06:51;18.00;99.90
44182;DHT22;30436;48.888;9.202;2022-10-30T01:09:21;18.00;99.90
44182;DHT22;30436;48.888;9.202;2022-10-30T01:11:47;17.90;99.90
44182;DHT22;30436;48.888;9.202;2022-10-30T01:14:16;17.80;99.90
44182;DHT22;30436;48.888;9.202;2022-10-30T01:28:41;17.80;99.90
44182;DHT22;30436;48.888;9.202;2022-10-30T01:34:20;17.90;99.90
44182;DHT22;30436;48.888;9.202;2022-10-30T01:37:06;17.90;99.90
44182;DHT22;30436;48.888;9.202;2022-10-30T01:39:37;17.90;99.90
44182;DHT22;30436;48.888;9.202;2022-10-30T01:42:43;17.80;99.90
44182;DHT22;30436;48.888;9.202;2022-10-30T01:51:11;17.30;99.90
44182;DHT22;30436;48.888;9.202;2022-10-30T02:01:11;17.10;99.90
44182;DHT22;30436;48.888;9.202;2022-10-30T02:03:37;17.00;99.90
44182;DHT22;30436;48.888;9.202;2022-10-30T02:06:04;17.00;99.90
44182;DHT22;30436;48.888;9.202;2022-10-30T02:08:30;17.00;99.90
44182;DHT22;30436;48.888;9.202;2022-10-30T02:10:56;17.00;99.90
44182;DHT22;30436;48.888;9.202;2022-10-30T02:13:43;16.90;99.90
44182;DHT22;30436;48.888;9.202;2022-10-30T02:16:09;17.00;99.90
44182;DHT22;30436;48.888;9.202;2022-10-30T02:18:35;16.90;99.90
44182;DHT22;30436;48.888;9.202;2022-10-30T02:21:01;16.90;99.90
44182;DHT22;30436;48.888;9.202;2022-10-30T02:23:27;17.00;99.90
44182;DHT22;30436;48.888;9.202;2022-10-30T02:25:53;16.80;99.90
44182;DHT22;30436;48.888;9.202;2022-10-30T02:28:19;16.90;99.90
44182;DHT22;30436;48.888;9.202;2022-10-30T02:30:45;16.70;99.90
44182;DHT22;30436;48.888;9.202;2022-10-30T02:33:10;16.70;99.90
44182;DHT22;30436;48.888;9.202;2022-10-30T02:35:36;16.50;99.90
44182;DHT22;30436;48.888;9.202;2022-10-30T02:38:02;16.60;99.90
44182;DHT22;30436;48.888;9.202;2022-10-30T02:40:28;16.50;99.90
44182;DHT22;30436;48.888;9.202;2022-10-30T02:42:55;16.50;99.90
44182;DHT22;30436;48.888;9.202;2022-10-30T02:45:21;16.50;99.90
44182;DHT22;30436;48.888;9.202;2022-10-30T02:47:47;16.50;99.90
44182;DHT22;30436;48.888;9.202;2022-10-30T02:50:13;16.50;99.90
44182;DHT22;30436;48.888;9.202;2022-10-30T02:52:39;16.50;99.90
44182;DHT22;30436;48.888;9.202;2022-10-30T02:55:05;16.60;99.90
44182;DHT22;30436;48.888;9.202;2022-10-30T02:57:30;16.60;99.90
44182;DHT22;30436;48.888;9.202;2022-10-30T02:59:56;16.60;99.90
44182;DHT22;30436;48.888;9.202;2022-10-30T03:02:22;16.60;99.90
44182;DHT22;30436;48.888;9.202;2022-10-30T03:04:48;16.60;99.90
44182;DHT22;30436;48.888;9.202;2022-10-30T03:07:14;16.60;99.90
44182;DHT22;30436;48.888;9.202;2022-10-30T03:09:40;16.60;99.90
44182;DHT22;30436;48.888;9.202;2022-10-30T03:12:06;16.70;99.90
44182;DHT22;30436;48.888;9.202;2022-10-30T03:14:32;16.60;99.90
44182;DHT22;30436;48.888;9.202;2022-10-30T03:16:58;16.50;99.90
44182;DHT22;30436;48.888;9.202;2022-10-30T03:19:23;16.50;99.90
44182;DHT22;30436;48.888;9.202;2022-10-30T03:21:52;16.20;99.90
44182;DHT22;30436;48.888;9.202;2022-10-30T03:24:18;16.30;99.90
44182;DHT22;30436;48.888;9.202;2022-10-30T03:26:43;16.30;99.90
44182;DHT22;30436;48.888;9.202;2022-10-30T03:29:09;16.20;99.90
44182;DHT22;30436;48.888;9.202;2022-10-30T03:31:35;16.20;99.90
44182;DHT22;30436;48.888;9.202;2022-10-30T03:34:11;16.40;99.90
44182;DHT22;30436;48.888;9.202;2022-10-30T03:36:40;16.30;99.90
44182;DHT22;30436;48.888;9.202;2022-10-30T03:39:06;16.40;99.90
44182;DHT22;30436;48.888;9.202;2022-10-30T03:41:33;16.10;99.90
44182;DHT22;30436;48.888;9.202;2022-10-30T03:43:59;16.20;99.90
44182;DHT22;30436;48.888;9.202;2022-10-30T03:46:25;16.20;99.90
44182;DHT22;30436;48.888;9.202;2022-10-30T03:48:54;16.30;99.90
44182;DHT22;30436;48.888;9.202;2022-10-30T03:51:20;16.10;99.90
44182;DHT22;30436;48.888;9.202;2022-10-30T03:53:46;16.10;99.90
44182;DHT22;30436;48.888;9.202;2022-10-30T03:56:11;16.10;99.90
44182;DHT22;30436;48.888;9.202;2022-10-30T03:58:44;16.10;99.90
44182;DHT22;30436;48.888;9.202;2022-10-30T04:01:12;16.10;99.90
44182;DHT22;30436;48.888;9.202;2022-10-30T04:03:41;16.10;99.90
44182;DHT22;30436;48.888;9.202;2022-10-30T04:06:08;16.00;99.90
44182;DHT22;30436;48.888;9.202;2022-10-30T04:08:34;16.00;99.90
44182;DHT22;30436;48.888;9.202;2022-10-30T04:11:01;16.00;99.90
44182;DHT22;30436;48.888;9.202;2022-10-30T04:13:27;16.10;99.90
44182;DHT22;30436;48.888;9.202;2022-10-30T04:15:53;15.90;99.90
44182;DHT22;30436;48.888;9.202;2022-10-30T04:18:21;16.00;99.90
44182;DHT22;30436;48.888;9.202;2022-10-30T04:20:47;16.10;99.90
44182;DHT22;30436;48.888;9.202;2022-10-30T04:23:16;16.00;99.90
44182;DHT22;30436;48.888;9.202;2022-10-30T04:25:42;15.90;99.90
44182;DHT22;30436;48.888;9.202;2022-10-30T04:28:09;15.90;99.90
44182;DHT22;30436;48.888;9.202;2022-10-30T04:30:36;16.00;99.90
44182;DHT22;30436;48.888;9.202;2022-10-30T04:33:04;15.90;99.90
44182;DHT22;30436;48.888;9.202;2022-10-30T04:35:34;15.90;99.90
44182;DHT22;30436;48.888;9.202;2022-10-30T04:38:05;15.80;99.90
44182;DHT22;30436;48.888;9.202;2022-10-30T04:40:38;15.80;99.90
44182;DHT22;30436;48.888;9.202;2022-10-30T04:43:06;15.70;99.90
44182;DHT22;30436;48.888;9.202;2022-10-30T04:45:33;15.70;99.90
44182;DHT22;30436;48.888;9.202;2022-10-30T04:48:05;15.70;99.90
44182;DHT22;30436;48.888;9.202;2022-10-30T04:50:32;15.70;99.90
44182;DHT22;30436;48.888;9.202;2022-10-30T04:53:06;15.60;99.90
44182;DHT22;30436;48.888;9.202;2022-10-30T04:55:33;15.50;99.90
44182;DHT22;30436;48.888;9.202;2022-10-30T04:57:59;15.50;99.90
44182;DHT22;30436;48.888;9.202;2022-10-30T05:00:30;15.40;99.90
44182;DHT22;30436;48.888;9.202;2022-10-30T05:03:03;15.50;99.90
44182;DHT22;30436;48.888;9.202;2022-10-30T05:05:29;15.50;99.90
44182;DHT22;30436;48.888;9.202;2022-10-30T05:07:55;15.40;99.90
44182;DHT22;30436;48.888;9.202;2022-10-30T05:10:21;15.40;99.90
44182;DHT22;30436;48.888;9.202;2022-10-30T05:12:49;15.40;99.90
44182;DHT22;30436;48.888;9.202;2022-10-30T05:15:15;15.40;99.90
44182;DHT22;30436;48.888;9.202;2022-10-30T05:17:41;15.30;99.90
44182;DHT22;30436;48.888;9.202;2022-10-30T05:20:08;15.20;99.90
44182;DHT22;30436;48.888;9.202;2022-10-30T05:22:33;15.20;99.90
44182;DHT22;30436;48.888;9.202;2022-10-30T05:24:59;15.20;99.90
44182;DHT22;30436;48.888;9.202;2022-10-30T05:27:27;15.20;99.90
44182;DHT22;30436;48.888;9.202;2022-10-30T05:29:55;15.10;99.90
44182;DHT22;30436;48.888;9.202;2022-10-30T05:32:20;15.10;99.90
44182;DHT22;30436;48.888;9.202;2022-10-30T05:34:48;15.20;99.90
44182;DHT22;30436;48.888;9.202;2022-10-30T05:37:18;15.10;99.90
44182;DHT22;30436;48.888;9.202;2022-10-30T05:39:44;15.10;99.90
44182;DHT22;30436;48.888;9.202;2022-10-30T05:42:24;15.10;99.90
44182;DHT22;30436;48.888;9.202;2022-10-30T05:44:51;15.00;99.90
44182;DHT22;30436;48.888;9.202;2022-10-30T05:47:17;15.10;99.90
44182;DHT22;30436;48.888;9.202;2022-10-30T05:49:46;15.10;99.90
44182;DHT22;30436;48.888;9.202;2022-10-30T05:52:17;15.10;99.90
44182;DHT22;30436;48.888;9.202;2022-10-30T05:54:42;15.10;99.90
44182;DHT22;30436;48.888;9.202;2022-10-30T05:57:14;15.10;99.90
44182;DHT22;30436;48.888;9.202;2022-10-30T05:59:40;15.10;99.90
44182;DHT22;30436;48.888;9.202;2022-10-30T06:02:06;15.00;99.90
44182;DHT22;30436;48.888;9.202;2022-10-30T06:04:32;15.20;99.90
44182;DHT22;30436;48.888;9.202;2022-10-30T06:07:01;15.10;99.90
44182;DHT22;30436;48.888;9.202;2022-10-30T06:09:26;14.90;99.90
44182;DHT22;30436;48.888;9.202;2022-10-30T06:12:01;15.00;99.90
44182;DHT22;30436;48.888;9.202;2022-10-30T06:14:50;15.10;99.90
44182;DHT22;30436;48.888;9.202;2022-10-30T06:17:16;15.20;99.90
44182;DHT22;30436;48.888;9.202;2022-10-30T06:19:58;15.20;99.90
44182;DHT22;30436;48.888;9.202;2022-10-30T06:23:01;15.20;99.90
44182;DHT22;30436;48.888;9.202;2022-10-30T06:25:39;15.20;99.90
44182;DHT22;30436;48.888;9.202;2022-10-30T06:28:12;15.20;99.90
44182;DHT22;30436;48.888;9.202;2022-10-30T06:30:39;15.30;99.90
44182;DHT22;30436;48.888;9.202;2022-10-30T06:33:08;15.40;99.90
44182;DHT22;30436;48.888;9.202;2022-10-30T06:35:36;15.30;99.90
44182;DHT22;30436;48.888;9.202;2022-10-30T06:38:02;15.30;99.90
44182;DHT22;30436;48.888;9.202;2022-10-30T06:40:31;15.40;99.90
44182;DHT22;30436;48.888;9.202;2022-10-30T06:42:57;15.40;99.90
44182;DHT22;30436;48.888;9.202;2022-10-30T06:45:35;15.40;99.90
44182;DHT22;30436;48.888;9.202;2022-10-30T06:48:00;15.30;99.90
44182;DHT22;30436;48.888;9.202;2022-10-30T06:50:28;15.30;99.90
44182;DHT22;30436;48.888;9.202;2022-10-30T06:52:54;15.40;99.90
44182;DHT22;30436;48.888;9.202;2022-10-30T06:55:20;15.40;99.90
44182;DHT22;30436;48.888;9.202;2022-10-30T06:57:58;15.40;99.90
44182;DHT22;30436;48.888;9.202;2022-10-30T07:00:36;15.30;99.90
44182;DHT22;30436;48.888;9.202;2022-10-30T07:03:31;15.30;99.90
44182;DHT22;30436;48.888;9.202;2022-10-30T07:05:57;15.50;99.90
44182;DHT22;30436;48.888;9.202;2022-10-30T07:08:23;15.50;99.90
44182;DHT22;30436;48.888;9.202;2022-10-30T07:10:49;15.60;99.90
44182;DHT22;30436;48.888;9.202;2022-10-30T07:13:35;15.60;99.90
44182;DHT22;30436;48.888;9.202;2022-10-30T07:16:15;15.50;99.90
44182;DHT22;30436;48.888;9.202;2022-10-30T07:18:43;15.60;99.90
44182;DHT22;30436;48.888;9.202;2022-10-30T07:21:09;15.60;99.90
44182;DHT22;30436;48.888;9.202;2022-10-30T07:23:36;15.60;99.90
44182;DHT22;30436;48.888;9.202;2022-10-30T07:26:22;15.60;99.90
44182;DHT22;30436;48.888;9.202;2022-10-30T07:28:49;15.60;99.90
44182;DHT22;30436;48.888;9.202;2022-10-30T07:31:37;15.60;99.90
44182;DHT22;30436;48.888;9.202;2022-10-30T07:34:29;15.60;99.90
44182;DHT22;30436;48.888;9.202;2022-10-30T07:37:14;15.80;99.90
44182;DHT22;30436;48.888;9.202;2022-10-30T07:39:44;15.80;99.90
44182;DHT22;30436;48.888;9.202;2022-10-30T07:42:22;15.90;99.90
44182;DHT22;30436;48.888;9.202;2022-10-30T07:45:06;16.00;99.90
44182;DHT22;30436;48.888;9.202;2022-10-30T07:48:05;16.00;99.90
44182;DHT22;30436;48.888;9.202;2022-10-30T07:50:41;16.20;99.90
44182;DHT22;30436;48.888;9.202;2022-10-30T07:53:07;16.40;99.90
44182;DHT22;30436;48.888;9.202;2022-10-30T07:55:33;16.40;99.90
44182;DHT22;30436;48.888;9.202;2022-10-30T07:58:01;16.50;99.90
44182;DHT22;30436;48.888;9.202;2022-10-30T08:00:59;16.30;99.90
44182;DHT22;30436;48.888;9.202;2022-10-30T08:03:30;16.50;99.90
44182;DHT22;30436;48.888;9.202;2022-10-30T08:06:03;16.70;99.90
44182;DHT22;30436;48.888;9.202;2022-10-30T08:08:32;16.70;99.90
44182;DHT22;30436;48.888;9.202;2022-10-30T08:11:16;16.80;99.90
44182;DHT22;30436;48.888;9.202;2022-10-30T08:13:42;17.00;99.90
44182;DHT22;30436;48.888;9.202;2022-10-30T08:16:08;17.10;99.90
44182;DHT22;30436;48.888;9.202;2022-10-30T08:18:34;17.10;99.90
44182;DHT22;30436;48.888;9.202;2022-10-30T08:21:00;17.20;99.90
44182;DHT22;30436;48.888;9.202;2022-10-30T08:23:26;17.10;99.90
44182;DHT22;30436;48.888;9.202;2022-10-30T08:25:56;17.20;99.90
44182;DHT22;30436;48.888;9.202;2022-10-30T08:28:25;17.50;99.90
44182;DHT22;30436;48.888;9.202;2022-10-30T08:30:50;17.50;99.90
44182;DHT22;30436;48.888;9.202;2022-10-30T08:33:24;17.60;99.90
44182;DHT22;30436;48.888;9.202;2022-10-30T08:36:13;17.70;99.90
44182;DHT22;30436;48.888;9.202;2022-10-30T08:38:40;17.80;99.90
44182;DHT22;30436;48.888;9.202;2022-10-30T08:41:26;17.80;99.90
44182;DHT22;30436;48.888;9.202;2022-10-30T08:43:52;17.90;99.90
44182;DHT22;30436;48.888;9.202;2022-10-30T08:46:17;18.00;99.90
44182;DHT22;30436;48.888;9.202;2022-10-30T08:48:43;18.20;99.90
44182;DHT22;30436;48.888;9.202;2022-10-30T08:51:09;18.20;99.90
44182;DHT22;30436;48.888;9.202;2022-10-30T08:53:40;18.20;99.90
44182;DHT22;30436;48.888;9.202;2022-10-30T08:56:11;18.30;99.90
44182;DHT22;30436;48.888;9.202;2022-10-30T08:58:46;18.50;99.90
44182;DHT22;30436;48.888;9.202;2022-10-30T09:01:12;18.80;99.90
44182;DHT22;30436;48.888;9.202;2022-10-30T09:03:58;18.80;99.90
44182;DHT22;30436;48.888;9.202;2022-10-30T09:06:46;18.90;99.90
44182;DHT22;30436;48.888;9.202;2022-10-30T09:09:35;19.10;99.90
44182;DHT22;30436;48.888;9.202;2022-10-30T09:12:02;19.20;99.90
44182;DHT22;30436;48.888;9.202;2022-10-30T09:14:31;19.30;99.90
44182;DHT22;30436;48.888;9.202;2022-10-30T09:16:57;19.50;99.90
44182;DHT22;30436;48.888;9.202;2022-10-30T09:19:23;19.50;99.90
44182;DHT22;30436;48.888;9.202;2022-10-30T09:21:49;19.40;99.90
44182;DHT22;30436;48.888;9.202;2022-10-30T09:24:15;19.40;99.90
44182;DHT22;30436;48.888;9.202;2022-10-30T09:26:49;19.50;99.90
44182;DHT22;30436;48.888;9.202;2022-10-30T09:29:20;19.70;99.90
44182;DHT22;30436;48.888;9.202;2022-10-30T09:32:03;19.60;99.90
44182;DHT22;30436;48.888;9.202;2022-10-30T09:34:36;19.90;99.90
44182;DHT22;30436;48.888;9.202;2022-10-30T09:37:11;20.10;99.90
44182;DHT22;30436;48.888;9.202;2022-10-30T09:39:38;20.20;99.90
44182;DHT22;30436;48.888;9.202;2022-10-30T09:58:27;21.30;99.90
44182;DHT22;30436;48.888;9.202;2022-10-30T10:01:11;21.40;99.90
44182;DHT22;30436;48.888;9.202;2022-10-30T10:04:23;21.40;99.90
44182;DHT22;30436;48.888;9.202;2022-10-30T10:07:31;21.60;99.90
44182;DHT22;30436;48.888;9.202;2022-10-30T10:10:12;22.00;99.90
44182;DHT22;30436;48.888;9.202;2022-10-30T10:12:54;22.10;99.90
44182;DHT22;30436;48.888;9.202;2022-10-30T10:15:44;22.40;99.40
44182;DHT22;30436;48.888;9.202;2022-10-30T10:18:30;22.40;99.90
44182;DHT22;30436;48.888;9.202;2022-10-30T10:21:03;22.50;98.10
44182;DHT22;30436;48.888;9.202;2022-10-30T10:23:47;22.70;99.10
44182;DHT22;30436;48.888;9.202;2022-10-30T10:29:07;23.30;98.00
44182;DHT22;30436;48.888;9.202;2022-10-30T10:34:31;23.70;95.00
44182;DHT22;30436;48.888;9.202;2022-10-30T10:37:17;24.10;95.10
44182;DHT22;30436;48.888;9.202;2022-10-30T10:40:02;24.50;93.50
44182;DHT22;30436;48.888;9.202;2022-10-30T10:42:43;24.50;90.90
44182;DHT22;30436;48.888;9.202;2022-10-30T10:51:05;25.90;80.60
44182;DHT22;30436;48.888;9.202;2022-10-30T10:56:18;26.50;80.00
44182;DHT22;30436;48.888;9.202;2022-10-30T10:59:08;26.90;78.60
44182;DHT22;30436;48.888;9.202;2022-10-30T11:01:39;27.20;76.70
44182;DHT22;30436;48.888;9.202;2022-10-30T11:04:17;27.40;78.50
44182;DHT22;30436;48.888;9.202;2022-10-30T11:06:49;27.70;76.30
44182;DHT22;30436;48.888;9.202;2022-10-30T11:09:20;28.00;71.60
44182;DHT22;30436;48.888;9.202;2022-10-30T11:11:48;28.30;72.10
44182;DHT22;30436;48.888;9.202;2022-10-30T11:14:18;28.80;67.60
44182;DHT22;30436;48.888;9.202;2022-10-30T11:19:13;29.30;65.40
44182;DHT22;30436;48.888;9.202;2022-10-30T11:21:42;29.80;67.90
44182;DHT22;30436;48.888;9.202;2022-10-30T11:24:35;30.00;67.10
44182;DHT22;30436;48.888;9.202;2022-10-30T11:29:56;30.80;64.20
44182;DHT22;30436;48.888;9.202;2022-10-30T11:32:28;30.50;61.90
44182;DHT22;30436;48.888;9.202;2022-10-30T11:37:38;32.00;58.10
44182;DHT22;30436;48.888;9.202;2022-10-30T11:40:15;32.30;58.20
44182;DHT22;30436;48.888;9.202;2022-10-30T11:45:19;32.50;58.30
44182;DHT22;30436;48.888;9.202;2022-10-30T11:47:48;32.40;57.70
44182;DHT22;30436;48.888;9.202;2022-10-30T11:50:21;33.30;56.20
44182;DHT22;30436;48.888;9.202;2022-10-30T11:52:53;33.20;56.00
44182;DHT22;30436;48.888;9.202;2022-10-30T11:57:57;34.50;52.50
44182;DHT22;30436;48.888;9.202;2022-10-30T12:00:28;35.10;51.00
44182;DHT22;30436;48.888;9.202;2022-10-30T12:02:56;35.20;51.40
44182;DHT22;30436;48.888;9.202;2022-10-30T12:13:17;33.80;53.40
44182;DHT22;30436;48.888;9.202;2022-10-30T12:15:45;33.50;54.60
44182;DHT22;30436;48.888;9.202;2022-10-30T12:18:20;33.90;53.80
44182;DHT22;30436;48.888;9.202;2022-10-30T12:20:51;34.40;54.90
44182;DHT22;30436;48.888;9.202;2022-10-30T12:23:22;34.80;53.70
44182;DHT22;30436;48.888;9.202;2022-10-30T12:25:56;34.30;53.20
44182;DHT22;30436;48.888;9.202;2022-10-30T12:28:25;34.30;54.50
44182;DHT22;30436;48.888;9.202;2022-10-30T12:31:13;34.50;54.10
44182;DHT22;30436;48.888;9.202;2022-10-30T12:33:46;34.50;53.50
44182;DHT22;30436;48.888;9.202;2022-10-30T12:36:21;34.10;52.60
44182;DHT22;30436;48.888;9.202;2022-10-30T12:38:58;34.10;55.00
44182;DHT22;30436;48.888;9.202;2022-10-30T12:41:50;34.50;54.00
44182;DHT22;30436;48.888;9.202;2022-10-30T12:44:35;34.60;52.50
44182;DHT22;30436;48.888;9.202;2022-10-30T12:47:22;34.20;53.30
44182;DHT22;30436;48.888;9.202;2022-10-30T12:49:52;34.70;52.50
44182;DHT22;30436;48.888;9.202;2022-10-30T12:52:32;34.70;54.30
44182;DHT22;30436;48.888;9.202;2022-10-30T12:55:19;34.30;53.70
44182;DHT22;30436;48.888;9.202;2022-10-30T12:57:55;34.00;52.10
44182;DHT22;30436;48.888;9.202;2022-10-30T13:00:22;34.00;54.00
44182;DHT22;30436;48.888;9.202;2022-10-30T13:03:05;33.90;53.60
44182;DHT22;30436;48.888;9.202;2022-10-30T13:08:24;34.80;53.10
44182;DHT22;30436;48.888;9.202;2022-10-30T13:13:48;35.70;51.20
44182;DHT22;30436;48.888;9.202;2022-10-30T13:16:28;35.90;52.60
44182;DHT22;30436;48.888;9.202;2022-10-30T13:18:56;35.70;52.00
44182;DHT22;30436;48.888;9.202;2022-10-30T13:26:51;33.20;55.20
44182;DHT22;30436;48.888;9.202;2022-10-30T13:34:40;29.90;61.90
44182;DHT22;30436;48.888;9.202;2022-10-30T13:37:22;29.40;63.10
44182;DHT22;30436;48.888;9.202;2022-10-30T13:43:02;28.50;67.10
44182;DHT22;30436;48.888;9.202;2022-10-30T13:45:38;28.20;66.00
44182;DHT22;30436;48.888;9.202;2022-10-30T13:48:49;27.90;67.10
44182;DHT22;30436;48.888;9.202;2022-10-30T13:51:37;27.60;66.80
44182;DHT22;30436;48.888;9.202;2022-10-30T13:56:42;27.50;66.50
44182;DHT22;30436;48.888;9.202;2022-10-30T13:59:12;27.40;66.40
44182;DHT22;30436;48.888;9.202;2022-10-30T14:02:04;27.30;68.50
44182;DHT22;30436;48.888;9.202;2022-10-30T14:04:55;27.30;69.70
44182;DHT22;30436;48.888;9.202;2022-10-30T14:10:41;27.20;71.10
44182;DHT22;30436;48.888;9.202;2022-10-30T14:15:42;26.80;71.70
44182;DHT22;30436;48.888;9.202;2022-10-30T14:20:43;26.80;71.40
44182;DHT22;30436;48.888;9.202;2022-10-30T14:25:40;26.50;73.70
44182;DHT22;30436;48.888;9.202;2022-10-30T14:28:19;26.30;73.80
44182;DHT22;30436;48.888;9.202;2022-10-30T14:30:46;26.20;74.40
44182;DHT22;30436;48.888;9.202;2022-10-30T14:33:49;26.10;73.70
44182;DHT22;30436;48.888;9.202;2022-10-30T14:41:27;25.80;73.90
44182;DHT22;30436;48.888;9.202;2022-10-30T14:44:04;25.70;74.10
44182;DHT22;30436;48.888;9.202;2022-10-30T14:46:43;25.60;76.30
44182;DHT22;30436;48.888;9.202;2022-10-30T14:58:35;25.20;80.60
44182;DHT22;30436;48.888;9.202;2022-10-30T15:00:43;25.10;77.90
44182;DHT22;30436;48.888;9.202;2022-10-30T15:05:50;24.90;80.00
44182;DHT22;30436;48.888;9.202;2022-10-30T15:16:18;24.70;80.70
44182;DHT22;30436;48.888;9.202;2022-10-30T15:19:02;24.60;80.30
44182;DHT22;30436;48.888;9.202;2022-10-30T15:21:30;24.50;81.10
44182;DHT22;30436;48.888;9.202;2022-10-30T15:23:58;24.30;82.10
44182;DHT22;30436;48.888;9.202;2022-10-30T15:26:34;24.30;81.00
44182;DHT22;30436;48.888;9.202;2022-10-30T15:29:01;24.20;81.10
44182;DHT22;30436;48.888;9.202;2022-10-30T15:31:28;24.20;77.90
44182;DHT22;30436;48.888;9.202;2022-10-30T15:33:55;23.90;82.30
44182;DHT22;30436;48.888;9.202;2022-10-30T15:36:27;24.00;80.00
44182;DHT22;30436;48.888;9.202;2022-10-30T15:39:16;23.70;84.80
44182;DHT22;30436;48.888;9.202;2022-10-30T15:41:53;23.70;81.40
44182;DHT22;30436;48.888;9.202;2022-10-30T15:44:34;23.60;81.00
44182;DHT22;30436;48.888;9.202;2022-10-30T15:47:02;23.60;81.70
44182;DHT22;30436;48.888;9.202;2022-10-30T15:49:32;23.50;83.30
44182;DHT22;30436;48.888;9.202;2022-10-30T15:52:03;23.60;82.10
44182;DHT22;30436;48.888;9.202;2022-10-30T15:54:32;23.50;82.10
44182;DHT22;30436;48.888;9.202;2022-10-30T15:56:58;23.40;82.20
44182;DHT22;30436;48.888;9.202;2022-10-30T15:59:29;23.30;82.70
44182;DHT22;30436;48.888;9.202;2022-10-30T16:01:57;23.30;82.90
44182;DHT22;30436;48.888;9.202;2022-10-30T16:04:25;23.30;83.10
44182;DHT22;30436;48.888;9.202;2022-10-30T16:06:54;23.20;85.00
44182;DHT22;30436;48.888;9.202;2022-10-30T16:09:20;23.10;86.20
44182;DHT22;30436;48.888;9.202;2022-10-30T16:11:47;23.20;85.00
44182;DHT22;30436;48.888;9.202;2022-10-30T16:14:20;23.10;83.60
44182;DHT22;30436;48.888;9.202;2022-10-30T16:16:47;23.00;86.80
44182;DHT22;30436;48.888;9.202;2022-10-30T16:21:46;22.80;87.40
44182;DHT22;30436;48.888;9.202;2022-10-30T16:24:12;22.90;85.80
44182;DHT22;30436;48.888;9.202;2022-10-30T16:26:39;22.80;87.20
44182;DHT22;30436;48.888;9.202;2022-10-30T16:31:43;22.70;88.80
44182;DHT22;30436;48.888;9.202;2022-10-30T16:34:38;22.60;90.00
44182;DHT22;30436;48.888;9.202;2022-10-30T16:37:05;22.50;90.60
44182;DHT22;30436;48.888;9.202;2022-10-30T16:39:35;22.40;90.20
44182;DHT22;30436;48.888;9.202;2022-10-30T16:42:02;22.30;90.30
44182;DHT22;30436;48.888;9.202;2022-10-30T16:44:32;22.20;90.80
44182;DHT22;30436;48.888;9.202;2022-10-30T16:49:32;22.10;90.80
44182;DHT22;30436;48.888;9.202;2022-10-30T16:52:02;22.00;90.90
44182;DHT22;30436;48.888;9.202;2022-10-30T16:54:51;22.10;91.90
44182;DHT22;30436;48.888;9.202;2022-10-30T16:57:25;22.10;91.10
44182;DHT22;30436;48.888;9.202;2022-10-30T16:59:52;22.30;91.40
44182;DHT22;30436;48.888;9.202;2022-10-30T17:02:23;22.00;91.90
44182;DHT22;30436;48.888;9.202;2022-10-30T17:04:54;22.00;92.30
44182;DHT22;30436;48.888;9.202;2022-10-30T17:07:23;21.80;92.30
44182;DHT22;30436;48.888;9.202;2022-10-30T17:09:51;21.80;93.10
44182;DHT22;30436;48.888;9.202;2022-10-30T17:12:19;21.90;93.00
44182;DHT22;30436;48.888;9.202;2022-10-30T17:19:57;21.70;93.30
44182;DHT22;30436;48.888;9.202;2022-10-30T17:22:23;21.60;93.20
44182;DHT22;30436;48.888;9.202;2022-10-30T17:24:49;21.60;94.20
44182;DHT22;30436;48.888;9.202;2022-10-30T17:30:12;21.60;93.60
44182;DHT22;30436;48.888;9.202;2022-10-30T17:32:51;21.60;93.90
44182;DHT22;30436;48.888;9.202;2022-10-30T17:35:18;21.70;93.60
44182;DHT22;30436;48.888;9.202;2022-10-30T17:37:44;21.50;94.00
44182;DHT22;30436;48.888;9.202;2022-10-30T17:40:11;21.40;93.90
44182;DHT22;30436;48.888;9.202;2022-10-30T17:42:37;21.40;93.90
44182;DHT22;30436;48.888;9.202;2022-10-30T17:45:08;21.40;94.40
44182;DHT22;30436;48.888;9.202;2022-10-30T17:47:36;21.50;94.10
44182;DHT22;30436;48.888;9.202;2022-10-30T17:50:03;21.50;94.60
44182;DHT22;30436;48.888;9.202;2022-10-30T17:52:30;21.40;94.70
44182;DHT22;30436;48.888;9.202;2022-10-30T17:54:56;21.30;94.80
44182;DHT22;30436;48.888;9.202;2022-10-30T17:57:22;21.20;95.30
44182;DHT22;30436;48.888;9.202;2022-10-30T17:59:50;21.20;95.50
44182;DHT22;30436;48.888;9.202;2022-10-30T18:02:19;21.00;96.00
44182;DHT22;30436;48.888;9.202;2022-10-30T18:04:46;20.90;96.70
44182;DHT22;30436;48.888;9.202;2022-10-30T18:07:13;20.80;97.00
44182;DHT22;30436;48.888;9.202;2022-10-30T18:09:41;20.70;97.50
44182;DHT22;30436;48.888;9.202;2022-10-30T18:12:09;20.60;98.70
44182;DHT22;30436;48.888;9.202;2022-10-30T18:14:36;20.60;99.10
44182;DHT22;30436;48.888;9.202;2022-10-30T18:17:02;20.80;99.90
44182;DHT22;30436;48.888;9.202;2022-10-30T18:19:27;20.70;99.90
44182;DHT22;30436;48.888;9.202;2022-10-30T18:21:53;20.70;99.80
44182;DHT22;30436;48.888;9.202;2022-10-30T18:24:19;20.60;99.50
44182;DHT22;30436;48.888;9.202;2022-10-30T18:26:45;20.50;99.90
44182;DHT22;30436;48.888;9.202;2022-10-30T18:29:10;20.40;99.90
44182;DHT22;30436;48.888;9.202;2022-10-30T18:31:37;20.50;99.90